CYAH

La Grande-4 Airport

ICAO Code CYAH
IATA Code YAH
Name La Grande-4 Airport
Location La Grande-4, Quebec, CA
Elevation 1005 Feet / 306.3 Meters
Latitude 53.75472222
Longitude -73.67527778
METAR CYAH 182200Z AUTO 33005KT 300V360 9SM BKN091 27/08 A2986 RMK SLP119 DENSITY ALT 2800FT
Extra information Display NOTAMS
Display Charts
Runway Length Width Surface Elevation
09 5009 ft 150 ft GRAVEL 993 ft
27 5009 ft 150 ft GRAVEL 1002 ft